Celebrity Galaxy — 9HJH9 — position and weather

sailwx.info

Track history (hours):
 
Tides and Currents Weather Stations Pressure Air Temp Water Temp Dewpoint Dewpoint Depression Visibility Wind Speed Wind Dir Waves Ship Positions

Celebrity Galaxy

Last reported at 2020-Jan-25 03:30 UTC. Time now 2020-Jan-25 05:20 UTC.
Position N 28°28' W 015°28'.

Length 410 m; draft 9.2 m.

Type: Ship. MMSI: 249051000.

Date/timePositionNaut miles runAvg speedWind from/ knotsBaromVisibWave heightAir tempDewpointWater temp
2020-Jan-25 03:30N 28°28' W 015°28'18 7.2
2020-Jan-25 01:00N 28°27' W 015°48'5 9.1
2020-Jan-25 00:30N 28°24' W 015°52'14 9.1
2020-Jan-24 23:01N 28°26' W 016°07'7 2.8
2020-Jan-24 20:28N 28°28' W 016°14'0 0.0
2020-Jan-24 20:00N 28°28' W 016°14'0 0.0
2020-Jan-24 19:30N 28°28' W 016°14'0 0.0
2020-Jan-24 16:00N 28°28' W 016°14'0 0.0
2020-Jan-24 14:59N 28°28' W 016°14'0 0.0
2020-Jan-24 13:58N 28°28' W 016°14'0 0.0
2020-Jan-24 11:58N 28°28' W 016°14'0 0.0
2020-Jan-24 10:58N 28°28' W 016°14'0 0.0
2020-Jan-24 10:30N 28°28' W 016°14'0 0.0
2020-Jan-24 09:59N 28°28' W 016°14'0 0.0
2020-Jan-24 07:30N 28°28' W 016°14'1 1.5
2020-Jan-24 07:00N 28°28' W 016°14'34 9.7
2020-Jan-24 03:30N 28°38' W 015°37'1110.9
2020-Jan-24 02:30N 28°39' W 015°24'2211.0
2020-Jan-24 00:30N 28°42' W 014°59'1111.3
2020-Jan-23 23:29N 28°43' W 014°46'60 3.3
2020-Jan-23 05:32N 28°22' W 013°42'3 5.7
2020-Jan-23 05:03N 28°20' W 013°40'37 3.7
2020-Jan-22 19:00N 28°55' W 013°26'6 1.0
2020-Jan-22 12:42N 28°58' W 013°32'0 0.0
2020-Jan-22 10:37N 28°58' W 013°32'0 0.0
2020-Jan-22 08:57N 28°58' W 013°32'0 0.0
2020-Jan-22 08:27N 28°58' W 013°32'  
2020-Jan-19 19:00N 29°10' W 017°00'816.6
2020-Jan-19 18:30N 29°02' W 017°01'114 6.2
2020-Jan-19 00:07N 27°48' W 015°22'21 9.9
2020-Jan-18 22:00N 28°08' W 015°25'0 0.0
2020-Jan-18 21:29N 28°08' W 015°25'0 0.0
2020-Jan-18 20:22N 28°08' W 015°25'0 0.0
2020-Jan-18 18:00N 28°08' W 015°25'0 0.0
2020-Jan-18 17:28N 28°08' W 015°25'0 0.0
2020-Jan-18 16:27N 28°08' W 015°25'0 0.0
2020-Jan-18 15:27N 28°08' W 015°25'0 0.0
2020-Jan-18 14:57N 28°08' W 015°25'0 0.0
2020-Jan-18 13:21N 28°08' W 015°25'0 0.0
2020-Jan-18 10:20N 28°08' W 015°25'0 0.0
2020-Jan-18 09:55N 28°08' W 015°25'8 2.3
2020-Jan-18 06:31N 28°09' W 015°17'4 8.5
2020-Jan-18 06:01N 28°14' W 015°16'15 7.6
2020-Jan-18 04:00N 28°27' W 015°24'17 8.3
2020-Jan-18 02:00N 28°33' W 015°42'9 8.8
2020-Jan-18 01:00N 28°27' W 015°48'8 7.8
2020-Jan-18 00:00N 28°24' W 015°56'16 4.1
2020-Jan-17 19:59N 28°28' W 016°14'0 0.0
2020-Jan-17 18:28N 28°28' W 016°14'0 0.0
2020-Jan-17 17:30N 28°28' W 016°14'0 0.0
2020-Jan-17 16:29N 28°28' W 016°14'0 0.0
2020-Jan-17 14:59N 28°28' W 016°14'0 0.0
2020-Jan-17 11:29N 28°28' W 016°14'0 0.0
2020-Jan-17 08:28N 28°28' W 016°14'1 0.4
2020-Jan-17 07:00N 28°29' W 016°14'2010.1
2020-Jan-17 05:00N 28°31' W 015°51'611.9
2020-Jan-17 04:30N 28°35' W 015°47'611.4
2020-Jan-17 04:00N 28°38' W 015°41'1711.5
2020-Jan-17 02:30N 28°40' W 015°22'2311.5
2020-Jan-17 00:30N 28°42' W 014°56'7510.0
2020-Jan-16 16:59N 28°58' W 013°32'0 0.0
2020-Jan-16 13:38N 28°58' W 013°32'0 0.0
2020-Jan-16 12:56N 28°58' W 013°32'0 0.0
2020-Jan-16 12:17N 28°58' W 013°32'0 0.0
2020-Jan-16 11:32N 28°58' W 013°32'0 0.0
2020-Jan-16 10:35N 28°58' W 013°32'1 0.3
2020-Jan-16 08:30N 28°57' W 013°32'  
Track history (hours):
 
Tides and Currents Weather Stations Pressure Air Temp Water Temp Dewpoint Dewpoint Depression Visibility Wind Speed Wind Dir Waves Ship Positions

Celebrity Galaxy

Last reported at 2020-Jan-25 03:30 UTC. Time now 2020-Jan-25 05:20 UTC.
Position N 28°28' W 015°28'.

Length 410 m; draft 9.2 m.

Type: Ship. MMSI: 249051000.

Date/timePositionNaut miles runAvg speedWind from/ knotsBaromVisibWave heightAir tempDewpointWater temp
2020-Jan-25 03:30N 28°28' W 015°28'18 7.2
2020-Jan-25 01:00N 28°27' W 015°48'5 9.1
2020-Jan-25 00:30N 28°24' W 015°52'14 9.1
2020-Jan-24 23:01N 28°26' W 016°07'7 2.8
2020-Jan-24 20:28N 28°28' W 016°14'0 0.0
2020-Jan-24 20:00N 28°28' W 016°14'0 0.0
2020-Jan-24 19:30N 28°28' W 016°14'0 0.0
2020-Jan-24 16:00N 28°28' W 016°14'0 0.0
2020-Jan-24 14:59N 28°28' W 016°14'0 0.0
2020-Jan-24 13:58N 28°28' W 016°14'0 0.0
2020-Jan-24 11:58N 28°28' W 016°14'0 0.0
2020-Jan-24 10:58N 28°28' W 016°14'0 0.0
2020-Jan-24 10:30N 28°28' W 016°14'0 0.0
2020-Jan-24 09:59N 28°28' W 016°14'0 0.0
2020-Jan-24 07:30N 28°28' W 016°14'1 1.5
2020-Jan-24 07:00N 28°28' W 016°14'34 9.7
2020-Jan-24 03:30N 28°38' W 015°37'1110.9
2020-Jan-24 02:30N 28°39' W 015°24'2211.0
2020-Jan-24 00:30N 28°42' W 014°59'1111.3
2020-Jan-23 23:29N 28°43' W 014°46'60 3.3
2020-Jan-23 05:32N 28°22' W 013°42'3 5.7
2020-Jan-23 05:03N 28°20' W 013°40'37 3.7
2020-Jan-22 19:00N 28°55' W 013°26'6 1.0
2020-Jan-22 12:42N 28°58' W 013°32'0 0.0
2020-Jan-22 10:37N 28°58' W 013°32'0 0.0
2020-Jan-22 08:57N 28°58' W 013°32'0 0.0
2020-Jan-22 08:27N 28°58' W 013°32'  
2020-Jan-19 19:00N 29°10' W 017°00'816.6
2020-Jan-19 18:30N 29°02' W 017°01'114 6.2
2020-Jan-19 00:07N 27°48' W 015°22'21 9.9
2020-Jan-18 22:00N 28°08' W 015°25'0 0.0
2020-Jan-18 21:29N 28°08' W 015°25'0 0.0
2020-Jan-18 20:22N 28°08' W 015°25'0 0.0
2020-Jan-18 18:00N 28°08' W 015°25'0 0.0
2020-Jan-18 17:28N 28°08' W 015°25'0 0.0
2020-Jan-18 16:27N 28°08' W 015°25'0 0.0
2020-Jan-18 15:27N 28°08' W 015°25'0 0.0
2020-Jan-18 14:57N 28°08' W 015°25'0 0.0
2020-Jan-18 13:21N 28°08' W 015°25'0 0.0
2020-Jan-18 10:20N 28°08' W 015°25'0 0.0
2020-Jan-18 09:55N 28°08' W 015°25'8 2.3
2020-Jan-18 06:31N 28°09' W 015°17'4 8.5
2020-Jan-18 06:01N 28°14' W 015°16'15 7.6
2020-Jan-18 04:00N 28°27' W 015°24'17 8.3
2020-Jan-18 02:00N 28°33' W 015°42'9 8.8
2020-Jan-18 01:00N 28°27' W 015°48'8 7.8
2020-Jan-18 00:00N 28°24' W 015°56'16 4.1
2020-Jan-17 19:59N 28°28' W 016°14'0 0.0
2020-Jan-17 18:28N 28°28' W 016°14'0 0.0
2020-Jan-17 17:30N 28°28' W 016°14'0 0.0
2020-Jan-17 16:29N 28°28' W 016°14'0 0.0
2020-Jan-17 14:59N 28°28' W 016°14'0 0.0
2020-Jan-17 11:29N 28°28' W 016°14'0 0.0
2020-Jan-17 08:28N 28°28' W 016°14'1 0.4
2020-Jan-17 07:00N 28°29' W 016°14'2010.1
2020-Jan-17 05:00N 28°31' W 015°51'611.9
2020-Jan-17 04:30N 28°35' W 015°47'611.4
2020-Jan-17 04:00N 28°38' W 015°41'1711.5
2020-Jan-17 02:30N 28°40' W 015°22'2311.5
2020-Jan-17 00:30N 28°42' W 014°56'7510.0
2020-Jan-16 16:59N 28°58' W 013°32'0 0.0
2020-Jan-16 13:38N 28°58' W 013°32'0 0.0
2020-Jan-16 12:56N 28°58' W 013°32'0 0.0
2020-Jan-16 12:17N 28°58' W 013°32'0 0.0
2020-Jan-16 11:32N 28°58' W 013°32'0 0.0
2020-Jan-16 10:35N 28°58' W 013°32'1 0.3
2020-Jan-16 08:30N 28°57' W 013°32'  

Dump ship's entire track history